createdAt,value
2018-11-05T00:01:54.093Z,52.23
2018-11-05T00:05:58.174Z,53.80
2018-11-05T00:10:02.209Z,49.07
2018-11-05T00:14:06.121Z,49.33
2018-11-05T00:18:10.069Z,44.70
2018-11-05T00:22:14.056Z,51.70
2018-11-05T00:26:17.967Z,50.63
2018-11-05T00:30:21.798Z,47.67
2018-11-05T00:34:25.730Z,53.00
2018-11-05T00:38:29.737Z,50.07
2018-11-05T00:42:33.973Z,51.13
2018-11-05T00:46:40.076Z,49.67
2018-11-05T00:50:43.902Z,50.10
2018-11-05T00:54:47.877Z,50.03
2018-11-05T00:58:51.870Z,51.23
2018-11-05T01:02:55.809Z,47.63
2018-11-05T01:06:59.693Z,49.90
2018-11-05T01:11:03.663Z,50.00
2018-11-05T01:15:09.808Z,44.67
2018-11-05T01:19:13.801Z,50.37
2018-11-05T01:23:17.773Z,52.70
2018-11-05T01:27:21.574Z,53.83
2018-11-05T01:31:25.506Z,54.33
2018-11-05T01:35:29.442Z,52.97
2018-11-05T01:39:33.293Z,48.07
2018-11-05T01:43:37.126Z,49.97
2018-11-05T01:47:41.669Z,48.37
2018-11-05T01:51:45.535Z,39.80
2018-11-05T01:55:49.352Z,43.40
2018-11-05T01:59:53.236Z,49.07
2018-11-05T02:03:57.182Z,45.67
2018-11-05T02:08:01.167Z,46.50
2018-11-05T02:12:05.376Z,45.23
2018-11-05T02:16:09.331Z,43.43
2018-11-05T02:20:14.232Z,51.17
2018-11-05T02:24:18.116Z,48.90
2018-11-05T02:28:21.976Z,48.13
2018-11-05T02:32:25.825Z,43.50
2018-11-05T02:36:29.906Z,51.17
2018-11-05T02:40:33.835Z,40.40
2018-11-05T02:44:37.739Z,49.57
2018-11-05T02:48:41.572Z,45.33
2018-11-05T02:52:46.311Z,41.93
2018-11-05T02:56:50.259Z,42.03
2018-11-05T03:00:54.161Z,41.10
2018-11-05T03:04:58.011Z,42.17
2018-11-05T03:09:01.862Z,38.87
2018-11-05T03:13:06.136Z,39.10
2018-11-05T03:17:10.019Z,45.57
2018-11-05T03:21:13.870Z,35.27
2018-11-05T03:25:17.772Z,41.67
2018-11-05T03:29:23.861Z,37.60
2018-11-05T03:33:27.732Z,46.67
2018-11-05T03:37:31.633Z,47.80
2018-11-05T03:41:35.543Z,42.93
2018-11-05T03:45:39.410Z,44.90
2018-11-05T03:49:49.752Z,43.70
2018-11-05T03:53:53.823Z,41.70
2018-11-05T03:57:58.112Z,42.27
2018-11-05T04:02:02.977Z,41.63
2018-11-05T04:06:08.228Z,46.83
2018-11-05T04:10:13.978Z,49.43
2018-11-05T04:14:18.070Z,43.07
2018-11-05T04:18:22.045Z,46.60
2018-11-05T04:22:26.106Z,42.90
2018-11-05T04:26:30.065Z,42.73
2018-11-05T04:30:34.796Z,46.50
2018-11-05T04:34:38.625Z,48.07
2018-11-05T04:38:42.522Z,48.43
2018-11-05T04:42:46.379Z,51.93
2018-11-05T04:46:50.272Z,45.53
2018-11-05T04:50:54.206Z,47.30
2018-11-05T04:54:58.034Z,46.80
2018-11-05T04:59:01.796Z,44.37
2018-11-05T05:03:05.617Z,44.57
2018-11-05T05:07:09.393Z,44.60
2018-11-05T05:11:13.146Z,50.17
2018-11-05T05:15:16.899Z,48.00
2018-11-05T05:19:21.519Z,52.73
2018-11-05T05:23:25.285Z,48.90
2018-11-05T05:27:29.158Z,50.67
2018-11-05T05:31:32.898Z,51.93
2018-11-05T05:35:36.639Z,47.77
2018-11-05T05:39:40.455Z,45.60
2018-11-05T05:43:44.637Z,45.40
2018-11-05T05:47:48.335Z,45.63
2018-11-05T05:51:52.179Z,50.50
2018-11-05T05:55:55.787Z,47.80
2018-11-05T05:59:59.530Z,37.57
2018-11-05T06:04:03.027Z,46.40
2018-11-05T06:08:06.654Z,45.13
2018-11-05T06:12:10.329Z,45.47
2018-11-05T06:16:14.218Z,48.73
2018-11-05T06:20:19.409Z,49.40
2018-11-05T06:24:23.124Z,50.47
2018-11-05T06:28:26.787Z,51.30
2018-11-05T06:32:30.444Z,55.40
2018-11-05T06:36:34.080Z,55.23
2018-11-05T06:40:39.175Z,58.97
2018-11-05T06:44:43.244Z,58.10
2018-11-05T06:48:47.225Z,52.90
2018-11-05T06:52:51.220Z,62.00
2018-11-05T06:56:55.080Z,51.10
2018-11-05T07:00:58.875Z,58.67
2018-11-05T07:05:02.767Z,52.83
2018-11-05T07:09:09.980Z,53.70
2018-11-05T07:13:14.075Z,49.67
2018-11-05T07:17:18.085Z,54.33
2018-11-05T07:21:22.121Z,52.00
2018-11-05T07:25:25.987Z,52.83
2018-11-05T07:29:29.935Z,52.43
2018-11-05T07:33:35.662Z,52.77
2018-11-05T07:37:40.729Z,54.33
2018-11-05T07:41:44.886Z,47.23
2018-11-05T07:45:48.932Z,53.70
2018-11-05T07:49:54.698Z,49.23
2018-11-05T07:53:58.959Z,52.83
2018-11-05T07:58:02.810Z,43.50
2018-11-05T08:02:07.466Z,42.90
2018-11-05T08:06:11.476Z,44.57
2018-11-05T08:10:15.601Z,43.57
2018-11-05T08:14:19.829Z,40.43
2018-11-05T08:18:23.840Z,38.33
2018-11-05T08:22:27.752Z,41.20
2018-11-05T08:26:31.727Z,46.77
2018-11-05T08:30:36.248Z,50.73
2018-11-05T08:34:40.215Z,36.67
2018-11-05T08:38:44.114Z,44.77
2018-11-05T08:42:48.931Z,41.33
2018-11-05T08:46:52.824Z,49.07
2018-11-05T08:50:58.972Z,48.93
2018-11-05T08:55:03.011Z,50.90
2018-11-05T08:59:06.940Z,45.10
2018-11-05T09:03:10.991Z,45.97
2018-11-05T09:07:14.913Z,50.20
2018-11-05T09:11:19.370Z,46.87
2018-11-05T09:15:23.268Z,44.80
2018-11-05T09:19:27.129Z,38.70
2018-11-05T09:23:31.151Z,43.17
2018-11-05T09:27:35.185Z,47.47
2018-11-05T09:31:39.101Z,53.40
2018-11-05T09:35:43.006Z,48.40
2018-11-05T09:39:46.849Z,47.07
2018-11-05T09:43:51.075Z,51.10
2018-11-05T09:47:55.023Z,52.10
2018-11-05T09:51:59.295Z,52.97
2018-11-05T09:56:03.192Z,47.03
2018-11-05T10:00:09.752Z,42.00
2018-11-05T10:04:13.693Z,45.27
2018-11-05T10:08:18.123Z,44.03
2018-11-05T10:12:22.122Z,39.87
2018-11-05T10:16:26.239Z,41.93
2018-11-05T10:20:30.092Z,46.77
2018-11-05T10:24:34.126Z,42.50
2018-11-05T10:28:38.042Z,43.10
2018-11-05T10:32:42.446Z,41.53
2018-11-05T10:36:46.508Z,45.10
2018-11-05T10:40:50.390Z,45.23
2018-11-05T10:44:54.219Z,46.43
2018-11-05T10:48:58.125Z,46.03
2018-11-05T10:53:02.117Z,46.27
2018-11-05T10:57:06.586Z,47.67
2018-11-05T11:01:15.011Z,45.87
2018-11-05T11:05:19.280Z,46.03
2018-11-05T11:09:23.297Z,42.23
2018-11-05T11:13:27.271Z,50.30
2018-11-05T11:17:31.957Z,49.37
2018-11-05T11:21:43.525Z,46.67
2018-11-05T11:25:47.834Z,44.27
2018-11-05T11:29:52.162Z,42.33
2018-11-05T11:33:56.112Z,45.80
2018-11-05T11:38:01.657Z,49.10
2018-11-05T11:42:05.889Z,49.83
2018-11-05T11:46:10.400Z,46.07
2018-11-05T11:50:16.093Z,43.40
2018-11-05T11:54:22.991Z,46.37
2018-11-05T11:58:31.640Z,46.70
2018-11-05T12:02:35.637Z,48.73
2018-11-05T12:06:39.760Z,45.67
2018-11-05T12:10:45.266Z,45.40
2018-11-05T12:14:50.632Z,49.70
2018-11-05T12:18:54.636Z,48.27
2018-11-05T12:22:59.263Z,48.77
2018-11-05T12:27:03.587Z,45.87
2018-11-05T12:31:13.319Z,44.17
2018-11-05T12:35:20.049Z,43.30
2018-11-05T12:39:24.724Z,50.90
2018-11-05T12:43:28.665Z,46.00
2018-11-05T12:47:32.686Z,40.83
2018-11-05T12:55:48.387Z,43.70
2018-11-05T12:59:52.483Z,43.87
2018-11-05T13:03:56.603Z,43.90
2018-11-05T13:08:00.960Z,36.67
2018-11-05T13:12:05.654Z,36.57
2018-11-05T13:16:12.478Z,34.73
2018-11-05T13:20:19.541Z,32.70
2018-11-05T13:24:24.549Z,30.43
2018-11-05T13:28:28.555Z,32.43
2018-11-05T13:32:32.690Z,35.37
2018-11-05T13:36:37.681Z,32.20
2018-11-05T13:40:41.966Z,31.33
2018-11-05T13:44:46.900Z,26.83
2018-11-05T13:48:51.618Z,28.43
2018-11-05T13:52:54.938Z,29.37
2018-11-05T13:56:58.962Z,26.30
2018-11-05T14:01:02.944Z,26.93
2018-11-05T14:05:06.947Z,24.40
2018-11-05T14:09:10.993Z,21.87
2018-11-05T14:13:14.927Z,25.30
2018-11-05T14:17:18.682Z,21.33
2018-11-05T14:21:22.486Z,21.47
2018-11-05T14:25:26.417Z,20.80
2018-11-05T14:29:31.021Z,24.07
2018-11-05T14:33:34.720Z,21.27
2018-11-05T14:37:44.012Z,23.93
2018-11-05T14:41:55.433Z,19.50
2018-11-05T14:46:01.546Z,22.13
2018-11-05T14:50:08.879Z,18.80
2018-11-05T14:54:12.876Z,22.07
2018-11-05T14:58:16.431Z,23.67
2018-11-05T15:02:25.467Z,22.67
2018-11-05T15:06:29.125Z,20.17
2018-11-05T15:10:32.906Z,22.60
2018-11-05T15:14:36.476Z,20.37
2018-11-05T15:18:40.464Z,22.63
2018-11-05T15:22:43.840Z,26.07
2018-11-05T15:26:47.623Z,21.43
2018-11-05T15:30:51.061Z,25.00
2018-11-05T15:34:54.674Z,21.63
2018-11-05T15:38:58.238Z,24.07
2018-11-05T15:43:03.061Z,25.93
2018-11-05T15:47:06.628Z,23.90
2018-11-05T15:51:10.306Z,25.37
2018-11-05T15:55:13.982Z,21.07
2018-11-05T15:59:17.633Z,23.73
2018-11-05T16:03:21.298Z,26.77
2018-11-05T16:07:24.948Z,22.53
2018-11-05T16:11:28.558Z,27.10
2018-11-05T16:15:32.192Z,23.67
2018-11-05T16:19:35.814Z,25.23
2018-11-05T16:23:40.322Z,23.10
2018-11-05T16:27:44.289Z,20.67
2018-11-05T16:31:48.245Z,25.83
2018-11-05T16:35:52.345Z,21.30
2018-11-05T16:39:57.256Z,23.07
2018-11-05T16:44:01.437Z,22.07
2018-11-05T16:48:10.385Z,20.43
2018-11-05T16:52:22.924Z,19.60
2018-11-05T16:56:30.887Z,21.60
2018-11-05T17:00:39.202Z,21.20
2018-11-05T17:04:44.484Z,23.03
2018-11-05T17:08:49.459Z,22.07
2018-11-05T17:12:53.996Z,22.23
2018-11-05T17:17:08.100Z,22.67
2018-11-05T17:21:12.121Z,20.70
2018-11-05T17:29:54.285Z,22.77
2018-11-05T17:33:58.301Z,23.50
2018-11-05T17:38:02.180Z,23.93
2018-11-05T17:42:08.217Z,26.00
2018-11-05T17:46:12.148Z,21.70
2018-11-05T17:50:17.212Z,24.97
2018-11-05T17:54:21.092Z,21.33
2018-11-05T17:58:24.882Z,22.83
2018-11-05T18:02:28.795Z,23.83
2018-11-05T18:06:33.183Z,24.67
2018-11-05T18:10:37.081Z,23.20
2018-11-05T18:14:41.028Z,22.80
2018-11-05T18:18:44.753Z,27.07
2018-11-05T18:22:48.768Z,25.63
2018-11-05T18:26:52.634Z,26.13
2018-11-05T18:30:56.387Z,31.37
2018-11-05T18:35:00.160Z,33.07
2018-11-05T18:39:04.498Z,27.57
2018-11-05T18:43:08.556Z,32.60
2018-11-05T18:47:12.550Z,34.57
2018-11-05T18:51:16.510Z,31.03
2018-11-05T18:55:20.726Z,29.30
2018-11-05T18:59:24.403Z,30.83
2018-11-05T19:03:28.248Z,31.33
2018-11-05T19:07:32.235Z,29.53
2018-11-05T19:11:36.265Z,32.60
2018-11-05T19:15:40.243Z,29.93
2018-11-05T19:19:44.152Z,28.37
2018-11-05T19:23:48.440Z,28.20
2018-11-05T19:27:52.670Z,26.80
2018-11-05T19:31:56.884Z,28.20
2018-11-05T19:36:04.715Z,28.67
2018-11-05T19:40:13.775Z,32.07
2018-11-05T19:44:18.479Z,31.87
2018-11-05T19:48:26.511Z,31.90
2018-11-05T19:52:34.456Z,29.63
2018-11-05T19:56:39.359Z,34.80
2018-11-05T20:00:50.645Z,32.77
2018-11-05T20:09:08.832Z,38.70
2018-11-05T20:13:21.732Z,31.63
2018-11-05T20:17:25.529Z,35.67
2018-11-05T20:21:29.361Z,32.47
2018-11-05T20:25:33.286Z,34.20
2018-11-05T20:29:37.111Z,37.07
2018-11-05T20:33:41.249Z,36.57
2018-11-05T20:37:44.984Z,38.63
2018-11-05T20:41:48.833Z,37.13
2018-11-05T20:45:52.661Z,39.00
2018-11-05T20:49:56.472Z,41.63
2018-11-05T20:54:00.299Z,36.07
2018-11-05T20:58:05.782Z,34.07
2018-11-05T21:02:09.677Z,35.27
2018-11-05T21:06:14.664Z,35.20
2018-11-05T21:10:18.545Z,33.27
2018-11-05T21:14:25.328Z,34.33
2018-11-05T21:18:29.169Z,34.77
2018-11-05T21:22:33.326Z,32.00
2018-11-05T21:26:37.317Z,36.87
2018-11-05T21:30:41.149Z,35.60
2018-11-05T21:34:45.084Z,35.53
2018-11-05T21:38:50.039Z,32.30
2018-11-05T21:42:53.932Z,28.87
2018-11-05T21:46:57.991Z,32.27
2018-11-05T21:51:01.841Z,32.07
2018-11-05T21:55:06.207Z,34.80
2018-11-05T21:59:09.978Z,35.43
2018-11-05T22:03:16.635Z,33.10
2018-11-05T22:07:20.657Z,32.60
2018-11-05T22:11:24.417Z,30.47
2018-11-05T22:15:33.295Z,35.30
2018-11-05T22:19:37.092Z,34.27
2018-11-05T22:23:40.881Z,32.43
2018-11-05T22:27:44.774Z,32.53
2018-11-05T22:31:49.587Z,34.70
2018-11-05T22:35:53.457Z,31.37
2018-11-05T22:39:57.265Z,33.70
2018-11-05T22:44:01.119Z,32.60
2018-11-05T22:48:04.994Z,34.70
2018-11-05T22:52:09.157Z,30.80
2018-11-05T22:56:12.969Z,37.03
2018-11-05T23:00:22.701Z,32.63
2018-11-05T23:04:26.543Z,34.10
2018-11-05T23:08:30.369Z,34.27
2018-11-05T23:12:34.123Z,31.77
2018-11-05T23:16:37.998Z,31.33
2018-11-05T23:20:41.815Z,36.03
2018-11-05T23:24:45.579Z,35.63
2018-11-05T23:28:49.449Z,34.67
2018-11-05T23:32:53.272Z,39.30
2018-11-05T23:36:56.979Z,39.80
2018-11-05T23:41:00.832Z,38.63
2018-11-05T23:45:04.874Z,32.70
2018-11-05T23:49:08.661Z,38.97
2018-11-05T23:53:12.464Z,35.77
2018-11-05T23:57:16.299Z,34.63
